createdAt,value
2018-04-07T00:00:50.461Z,47.42
2018-04-07T00:03:17.330Z,47.67
2018-04-07T00:05:44.194Z,47.57
2018-04-07T00:08:12.005Z,47.83
2018-04-07T00:10:38.880Z,47.96
2018-04-07T00:13:05.768Z,47.84
2018-04-07T00:15:32.793Z,47.90
2018-04-07T00:17:59.748Z,47.78
2018-04-07T00:20:27.460Z,48.29
2018-04-07T00:22:54.599Z,47.91
2018-04-07T00:25:21.506Z,48.33
2018-04-07T00:27:49.229Z,48.20
2018-04-07T00:30:16.335Z,48.57
2018-04-07T00:32:43.191Z,48.90
2018-04-07T00:35:10.099Z,48.67
2018-04-07T00:37:37.202Z,48.83
2018-04-07T00:40:04.136Z,48.85
2018-04-07T00:42:31.052Z,48.73
2018-04-07T00:44:57.998Z,48.66
2018-04-07T00:47:25.679Z,49.31
2018-04-07T00:49:53.334Z,49.20
2018-04-07T00:52:21.233Z,49.21
2018-04-07T00:54:48.197Z,49.41
2018-04-07T00:57:15.104Z,49.59
2018-04-07T00:59:42.042Z,50.30
2018-04-07T01:02:09.656Z,50.33
2018-04-07T01:04:36.573Z,50.20
2018-04-07T01:07:03.506Z,50.51
2018-04-07T01:09:31.155Z,51.05
2018-04-07T01:11:58.804Z,50.77
2018-04-07T01:14:25.754Z,51.27
2018-04-07T01:16:52.704Z,51.19
2018-04-07T01:19:19.630Z,51.20
2018-04-07T01:21:46.706Z,51.27
2018-04-07T01:24:14.333Z,51.57
2018-04-07T01:26:41.200Z,51.29
2018-04-07T01:29:08.269Z,51.89
2018-04-07T01:31:35.863Z,52.62
2018-04-07T01:34:02.734Z,52.61
2018-04-07T01:36:29.808Z,52.51
2018-04-07T01:38:56.729Z,53.35
2018-04-07T01:41:23.663Z,53.66
2018-04-07T01:43:50.577Z,53.63
2018-04-07T01:46:17.487Z,53.75
2018-04-07T01:48:44.688Z,53.88
2018-04-07T01:51:11.754Z,53.15
2018-04-07T01:53:38.666Z,52.73
2018-04-07T01:56:06.283Z,53.03
2018-04-07T01:58:33.241Z,52.94
2018-04-07T02:01:00.145Z,52.80
2018-04-07T02:03:27.024Z,53.01
2018-04-07T02:05:54.085Z,52.66
2018-04-07T02:08:20.961Z,53.63
2018-04-07T02:10:47.906Z,53.48
2018-04-07T02:13:14.886Z,53.42
2018-04-07T02:15:41.799Z,53.20
2018-04-07T02:18:08.674Z,53.40
2018-04-07T02:20:35.681Z,53.18
2018-04-07T02:23:03.289Z,53.16
2018-04-07T02:25:30.164Z,53.62
2018-04-07T02:27:57.175Z,53.31
2018-04-07T02:30:24.534Z,52.94
2018-04-07T02:32:51.410Z,53.37
2018-04-07T02:35:18.402Z,53.27
2018-04-07T02:37:45.286Z,53.50
2018-04-07T02:40:12.203Z,53.54
2018-04-07T02:42:39.344Z,53.63
2018-04-07T02:45:06.219Z,53.59
2018-04-07T02:47:33.091Z,53.27
2018-04-07T02:50:00.304Z,54.07
2018-04-07T02:52:27.177Z,54.27
2018-04-07T02:54:54.109Z,54.18
2018-04-07T02:57:21.120Z,54.02
2018-04-07T02:59:48.014Z,54.41
2018-04-07T03:02:14.896Z,54.22
2018-04-07T03:04:42.645Z,53.93
2018-04-07T03:07:09.565Z,54.30
2018-04-07T03:09:36.481Z,54.57
2018-04-07T03:12:03.608Z,54.25
2018-04-07T03:14:31.220Z,54.35
2018-04-07T03:16:58.124Z,54.27
2018-04-07T03:19:25.093Z,53.91
2018-04-07T03:21:51.977Z,53.75
2018-04-07T03:24:18.843Z,53.37
2018-04-07T03:26:46.502Z,53.41
2018-04-07T03:29:14.113Z,53.11
2018-04-07T03:31:41.049Z,53.28
2018-04-07T03:34:08.072Z,52.80
2018-04-07T03:36:35.687Z,53.39
2018-04-07T03:39:02.702Z,53.66
2018-04-07T03:41:29.622Z,53.81
2018-04-07T03:43:57.222Z,53.85
2018-04-07T03:46:24.196Z,54.66
2018-04-07T03:48:51.274Z,54.37
2018-04-07T03:51:18.916Z,55.34
2018-04-07T03:53:45.837Z,55.41
2018-04-07T03:56:12.934Z,55.42
2018-04-07T03:58:40.595Z,55.76
2018-04-07T04:01:07.534Z,55.56
2018-04-07T04:03:34.643Z,55.88
2018-04-07T04:06:01.563Z,55.83
2018-04-07T04:08:28.420Z,55.83
2018-04-07T04:10:55.334Z,55.89
2018-04-07T04:13:22.943Z,56.19
2018-04-07T04:15:49.824Z,55.95
2018-04-07T04:18:16.886Z,56.92
2018-04-07T04:20:43.741Z,56.89
2018-04-07T04:23:11.353Z,56.68
2018-04-07T04:25:38.370Z,56.33
2018-04-07T04:28:05.234Z,56.76
2018-04-07T04:30:32.214Z,56.92
2018-04-07T04:32:59.342Z,56.81
2018-04-07T04:35:26.303Z,57.04
2018-04-07T04:37:53.187Z,56.83
2018-04-07T04:40:20.886Z,57.40
2018-04-07T04:42:47.811Z,57.22
2018-04-07T04:45:14.693Z,57.39
2018-04-07T04:47:41.698Z,57.20
2018-04-07T04:50:08.569Z,57.15
2018-04-07T04:52:35.429Z,57.01
2018-04-07T04:55:03.554Z,57.29
2018-04-07T04:57:30.436Z,57.13
2018-04-07T04:59:57.305Z,57.16
2018-04-07T05:02:24.428Z,57.14
2018-04-07T05:04:51.288Z,56.97
2018-04-07T05:07:18.163Z,56.81
2018-04-07T05:09:45.355Z,56.72
2018-04-07T05:12:12.285Z,56.93
2018-04-07T05:14:39.884Z,56.70
2018-04-07T05:17:07.736Z,56.32
2018-04-07T05:19:34.666Z,56.40
2018-04-07T05:22:01.522Z,55.67
2018-04-07T05:24:29.202Z,56.08
2018-04-07T05:26:56.062Z,56.12
2018-04-07T05:29:22.930Z,56.19
2018-04-07T05:31:50.085Z,55.99
2018-04-07T05:34:17.046Z,56.34
2018-04-07T05:36:44.702Z,55.79
2018-04-07T05:39:11.857Z,55.54
2018-04-07T05:41:39.493Z,55.82
2018-04-07T05:44:06.424Z,55.92
2018-04-07T05:46:33.504Z,56.02
2018-04-07T05:49:00.413Z,56.39
2018-04-07T05:51:27.287Z,56.03
2018-04-07T05:53:54.365Z,56.10
2018-04-07T05:56:21.978Z,56.39
2018-04-07T05:58:48.857Z,56.09
2018-04-07T06:01:15.868Z,55.95
2018-04-07T06:03:42.754Z,55.58
2018-04-07T06:06:10.395Z,54.58
2018-04-07T06:08:37.458Z,53.48
2018-04-07T06:11:04.349Z,53.99
2018-04-07T06:13:31.225Z,53.13
2018-04-07T06:15:59.610Z,52.74
2018-04-07T06:18:26.551Z,53.00
2018-04-07T06:20:53.457Z,52.87
2018-04-07T06:23:20.537Z,52.78
2018-04-07T06:25:47.431Z,51.37
2018-04-07T06:28:15.050Z,53.01
2018-04-07T06:30:42.129Z,52.09
2018-04-07T06:33:09.749Z,52.36
2018-04-07T06:35:36.755Z,52.25
2018-04-07T06:38:04.513Z,51.65
2018-04-07T06:40:32.150Z,50.75
2018-04-07T06:42:59.042Z,50.51
2018-04-07T06:45:26.186Z,51.37
2018-04-07T06:47:53.141Z,50.65
2018-04-07T06:50:20.011Z,50.05
2018-04-07T06:52:46.964Z,48.56
2018-04-07T06:55:14.646Z,48.82
2018-04-07T06:57:41.546Z,46.02
2018-04-07T07:00:08.686Z,45.73
2018-04-07T07:02:36.820Z,44.25
2018-04-07T07:05:04.547Z,44.71
2018-04-07T07:07:31.586Z,43.62
2018-04-07T07:09:58.470Z,43.04
2018-04-07T07:12:25.367Z,42.86
2018-04-07T07:14:53.301Z,42.17
2018-04-07T07:17:21.195Z,41.73
2018-04-07T07:19:48.629Z,41.17
2018-04-07T07:22:15.559Z,41.45
2018-04-07T07:24:42.472Z,41.14
2018-04-07T07:27:09.434Z,41.42
2018-04-07T07:29:36.312Z,41.32
2018-04-07T07:32:03.293Z,40.65
2018-04-07T07:34:30.927Z,40.88
2018-04-07T07:36:58.002Z,40.33
2018-04-07T07:39:25.627Z,39.19
2018-04-07T07:41:52.526Z,40.16
2018-04-07T07:44:19.447Z,38.82
2018-04-07T07:46:47.396Z,39.26
2018-04-07T07:49:14.597Z,39.91
2018-04-07T07:51:41.495Z,39.62
2018-04-07T07:54:08.468Z,39.48
2018-04-07T07:56:36.137Z,38.88
2018-04-07T07:59:03.276Z,38.99
2018-04-07T08:01:30.907Z,38.47
2018-04-07T08:03:57.821Z,38.42
2018-04-07T08:06:24.723Z,39.07
2018-04-07T08:08:51.982Z,37.77
2018-04-07T08:11:19.647Z,38.16
2018-04-07T08:13:47.305Z,37.32
2018-04-07T08:16:14.232Z,38.02
2018-04-07T08:18:41.155Z,37.52
2018-04-07T08:21:08.030Z,36.30
2018-04-07T08:23:34.890Z,38.10
2018-04-07T08:26:02.566Z,37.86
2018-04-07T08:28:29.455Z,37.93
2018-04-07T08:30:56.479Z,38.06
2018-04-07T08:33:23.345Z,38.01
2018-04-07T08:35:50.234Z,36.90
2018-04-07T08:38:17.185Z,38.20
2018-04-07T08:40:44.879Z,38.40
2018-04-07T08:43:11.785Z,37.00
2018-04-07T08:45:38.662Z,37.90
2018-04-07T08:48:05.579Z,36.62
2018-04-07T08:50:32.455Z,37.62
2018-04-07T08:52:59.417Z,37.75
2018-04-07T08:55:26.409Z,37.42
2018-04-07T08:57:53.318Z,37.04
2018-04-07T09:00:20.262Z,36.56
2018-04-07T09:02:47.175Z,37.14
2018-04-07T09:05:14.091Z,37.26
2018-04-07T09:07:41.043Z,37.59
2018-04-07T09:10:07.923Z,37.08
2018-04-07T09:12:34.826Z,36.31
2018-04-07T09:15:02.031Z,36.60
2018-04-07T09:17:28.952Z,35.96
2018-04-07T09:19:56.564Z,35.30
2018-04-07T09:22:23.477Z,35.24
2018-04-07T09:24:50.441Z,35.18
2018-04-07T09:27:17.307Z,35.43
2018-04-07T09:29:44.254Z,34.36
2018-04-07T09:32:11.121Z,34.88
2018-04-07T09:34:38.321Z,34.99
2018-04-07T09:37:05.200Z,35.25
2018-04-07T09:39:32.110Z,35.76
2018-04-07T09:41:59.023Z,35.90
2018-04-07T09:44:26.720Z,34.99
2018-04-07T09:46:53.670Z,34.52
2018-04-07T09:49:20.566Z,34.61
2018-04-07T09:51:47.434Z,35.58
2018-04-07T09:54:15.393Z,34.89
2018-04-07T09:56:42.298Z,35.01
2018-04-07T09:59:09.188Z,34.35
2018-04-07T10:01:36.921Z,34.67
2018-04-07T10:04:03.856Z,34.87
2018-04-07T10:06:30.781Z,34.32
2018-04-07T10:08:57.687Z,33.13
2018-04-07T10:11:25.683Z,32.69
2018-04-07T10:13:52.596Z,32.73
2018-04-07T10:16:19.471Z,34.14
2018-04-07T10:18:46.487Z,34.85
2018-04-07T10:21:13.397Z,32.80
2018-04-07T10:23:40.305Z,33.27
2018-04-07T10:26:07.964Z,33.34
2018-04-07T10:28:35.619Z,33.24
2018-04-07T10:31:03.346Z,33.89
2018-04-07T10:33:30.216Z,33.46
2018-04-07T10:35:57.130Z,33.36
2018-04-07T10:38:24.051Z,33.71
2018-04-07T10:40:50.999Z,33.41
2018-04-07T10:43:17.897Z,32.66
2018-04-07T10:45:44.826Z,32.66
2018-04-07T10:48:11.735Z,32.69
2018-04-07T10:50:38.607Z,31.56
2018-04-07T10:53:05.534Z,31.65
2018-04-07T10:55:32.509Z,32.05
2018-04-07T10:57:59.433Z,32.21
2018-04-07T11:00:26.347Z,32.16
2018-04-07T11:02:54.015Z,32.34
2018-04-07T11:05:20.903Z,32.54
2018-04-07T11:07:47.835Z,32.49
2018-04-07T11:10:14.729Z,31.68
2018-04-07T11:12:41.646Z,30.93
2018-04-07T11:15:08.536Z,30.94
2018-04-07T11:17:36.194Z,31.95
2018-04-07T11:20:03.862Z,31.92
2018-04-07T11:22:31.493Z,32.18
2018-04-07T11:24:58.452Z,32.17
2018-04-07T11:27:26.082Z,30.13
2018-04-07T11:29:53.011Z,30.71
2018-04-07T11:32:21.720Z,31.26
2018-04-07T11:34:49.356Z,30.08
2018-04-07T11:37:18.184Z,31.59
2018-04-07T11:39:45.153Z,30.43
2018-04-07T11:42:13.150Z,29.58
2018-04-07T11:44:40.145Z,29.80
2018-04-07T11:47:07.071Z,30.88
2018-04-07T11:49:34.818Z,30.71
2018-04-07T11:52:01.766Z,31.08
2018-04-07T11:54:28.681Z,30.05
2018-04-07T11:56:56.316Z,30.54
2018-04-07T11:59:23.343Z,31.21
2018-04-07T12:01:50.226Z,29.99
2018-04-07T12:04:17.107Z,31.13
2018-04-07T12:06:44.038Z,30.48
2018-04-07T12:09:11.693Z,30.20
2018-04-07T12:11:39.367Z,29.94
2018-04-07T12:14:06.273Z,31.51
2018-04-07T12:16:33.237Z,30.95
2018-04-07T12:19:00.156Z,30.94
2018-04-07T12:21:27.305Z,31.12
2018-04-07T12:23:54.223Z,29.76
2018-04-07T12:26:21.141Z,30.00
2018-04-07T12:28:48.811Z,30.36
2018-04-07T12:31:16.523Z,30.25
2018-04-07T12:33:43.541Z,30.87
2018-04-07T12:36:10.426Z,31.61
2018-04-07T12:38:37.339Z,30.70
2018-04-07T12:41:04.292Z,29.93
2018-04-07T12:43:31.167Z,30.07
2018-04-07T12:45:58.086Z,29.54
2018-04-07T12:48:24.958Z,29.60
2018-04-07T12:50:51.828Z,29.56
2018-04-07T12:53:18.779Z,29.52
2018-04-07T12:55:45.711Z,29.56
2018-04-07T12:58:12.689Z,29.60
2018-04-07T13:00:40.297Z,29.66
2018-04-07T13:03:07.222Z,30.05
2018-04-07T13:05:34.085Z,29.82
2018-04-07T13:08:01.791Z,28.08
2018-04-07T13:10:29.441Z,29.58
2018-04-07T13:12:56.356Z,30.08
2018-04-07T13:15:23.267Z,27.65
2018-04-07T13:17:50.192Z,28.19
2018-04-07T13:20:17.845Z,29.00
2018-04-07T13:22:45.533Z,28.81
2018-04-07T13:25:13.273Z,28.34
2018-04-07T13:27:40.155Z,29.35
2018-04-07T13:30:07.079Z,28.43
2018-04-07T13:32:34.817Z,28.31
2018-04-07T13:35:01.728Z,28.63
2018-04-07T13:37:28.691Z,28.71
2018-04-07T13:39:55.578Z,28.43
2018-04-07T13:42:23.274Z,29.97
2018-04-07T13:44:50.212Z,28.71
2018-04-07T13:47:17.081Z,29.64
2018-04-07T13:49:43.997Z,29.10
2018-04-07T13:52:10.916Z,29.70
2018-04-07T13:54:37.869Z,29.92
2018-04-07T13:57:05.548Z,29.97
2018-04-07T13:59:33.199Z,29.14
2018-04-07T14:02:00.905Z,29.49
2018-04-07T14:04:27.819Z,29.72
2018-04-07T14:06:55.418Z,29.25
2018-04-07T14:09:22.331Z,29.92
2018-04-07T14:11:49.953Z,29.14
2018-04-07T14:14:16.863Z,28.38
2018-04-07T14:16:43.802Z,29.29
2018-04-07T14:19:10.722Z,28.36
2018-04-07T14:21:38.330Z,28.98
2018-04-07T14:24:05.279Z,28.50
2018-04-07T14:26:32.190Z,28.15
2018-04-07T14:28:59.356Z,27.68
2018-04-07T14:31:26.288Z,27.40
2018-04-07T14:33:53.175Z,28.29
2018-04-07T14:36:20.105Z,27.55
2018-04-07T14:38:47.249Z,28.13
2018-04-07T14:41:14.188Z,28.06
2018-04-07T14:43:41.054Z,28.11
2018-04-07T14:46:07.965Z,28.40
2018-04-07T14:48:34.849Z,28.32
2018-04-07T14:51:01.722Z,28.01
2018-04-07T14:53:28.649Z,28.11
2018-04-07T14:55:56.458Z,27.63
2018-04-07T14:58:24.160Z,28.04
2018-04-07T15:00:51.085Z,27.61
2018-04-07T15:03:17.964Z,27.86
2018-04-07T15:05:44.922Z,28.16
2018-04-07T15:08:11.821Z,28.36
2018-04-07T15:10:38.756Z,28.27
2018-04-07T15:13:05.658Z,28.35
2018-04-07T15:15:32.605Z,28.19
2018-04-07T15:17:59.473Z,28.18
2018-04-07T15:20:26.411Z,28.65
2018-04-07T15:22:53.291Z,28.63
2018-04-07T15:25:20.207Z,27.92
2018-04-07T15:27:47.119Z,28.65
2018-04-07T15:30:14.203Z,29.31
2018-04-07T15:32:41.193Z,29.03
2018-04-07T15:35:08.111Z,29.93
2018-04-07T15:37:35.791Z,29.73
2018-04-07T15:40:03.010Z,30.09
2018-04-07T15:42:29.865Z,29.08
2018-04-07T15:44:56.798Z,29.72
2018-04-07T15:47:24.418Z,28.64
2018-04-07T15:49:51.315Z,29.02
2018-04-07T15:52:18.319Z,28.89
2018-04-07T15:54:45.231Z,28.96
2018-04-07T15:57:12.093Z,28.84
2018-04-07T15:59:39.084Z,28.81
2018-04-07T16:02:06.037Z,29.28
2018-04-07T16:04:32.990Z,28.83
2018-04-07T16:06:59.949Z,28.18
2018-04-07T16:09:27.656Z,27.73
2018-04-07T16:11:54.574Z,28.31
2018-04-07T16:14:23.709Z,28.29
2018-04-07T16:16:50.622Z,28.44
2018-04-07T16:19:17.592Z,28.32
2018-04-07T16:21:44.537Z,28.02
2018-04-07T16:24:11.448Z,28.32
2018-04-07T16:26:39.114Z,28.12
2018-04-07T16:29:06.758Z,28.30
2018-04-07T16:31:33.801Z,29.00
2018-04-07T16:34:00.703Z,28.65
2018-04-07T16:36:27.586Z,29.17
2018-04-07T16:38:54.532Z,29.50
2018-04-07T16:41:21.452Z,30.12
2018-04-07T16:43:48.326Z,30.62
2018-04-07T16:46:15.245Z,30.84
2018-04-07T16:48:42.183Z,30.78
2018-04-07T16:51:09.428Z,30.77
2018-04-07T16:53:36.331Z,30.94
2018-04-07T16:56:03.263Z,31.23
2018-04-07T16:58:30.685Z,31.44
2018-04-07T17:00:58.357Z,31.99
2018-04-07T17:03:25.240Z,32.43
2018-04-07T17:05:52.201Z,32.43
2018-04-07T17:08:19.499Z,33.06
2018-04-07T17:10:46.445Z,33.64
2018-04-07T17:13:14.050Z,34.29
2018-04-07T17:15:41.004Z,33.79
2018-04-07T17:18:07.938Z,34.21
2018-04-07T17:20:34.858Z,34.37
2018-04-07T17:23:01.762Z,34.58
2018-04-07T17:25:29.415Z,34.88
2018-04-07T17:27:57.100Z,35.24
2018-04-07T17:30:23.991Z,35.72
2018-04-07T17:32:50.935Z,36.53
2018-04-07T17:35:17.918Z,36.35
2018-04-07T17:37:45.884Z,37.17
2018-04-07T17:40:13.535Z,37.02
2018-04-07T17:42:40.396Z,37.43
2018-04-07T17:45:08.086Z,37.30
2018-04-07T17:47:34.962Z,37.54
2018-04-07T17:50:01.997Z,38.13
2018-04-07T17:52:28.882Z,39.23
2018-04-07T17:54:55.792Z,39.10
2018-04-07T17:57:22.770Z,39.59
2018-04-07T17:59:49.637Z,39.64
2018-04-07T18:02:17.337Z,40.02
2018-04-07T18:04:44.208Z,39.71
2018-04-07T18:07:11.590Z,40.47
2018-04-07T18:09:38.511Z,40.27
2018-04-07T18:12:05.422Z,41.12
2018-04-07T18:14:32.344Z,41.14
2018-04-07T18:17:00.127Z,41.35
2018-04-07T18:19:26.997Z,41.54
2018-04-07T18:21:53.907Z,41.84
2018-04-07T18:24:22.470Z,42.17
2018-04-07T18:26:49.348Z,42.34
2018-04-07T18:29:16.210Z,42.29
2018-04-07T18:31:43.157Z,42.46
2018-04-07T18:34:10.103Z,42.77
2018-04-07T18:36:37.010Z,42.75
2018-04-07T18:39:05.657Z,43.16
2018-04-07T18:41:32.593Z,43.46
2018-04-07T18:43:59.518Z,43.65
2018-04-07T18:46:26.413Z,43.55
2018-04-07T18:48:53.273Z,43.57
2018-04-07T18:51:20.936Z,43.74
2018-04-07T18:53:48.611Z,43.70
2018-04-07T18:56:15.514Z,43.71
2018-04-07T18:58:42.507Z,43.91
2018-04-07T19:01:10.151Z,43.86
2018-04-07T19:03:37.094Z,43.95
2018-04-07T19:06:04.816Z,43.48
2018-04-07T19:08:31.733Z,43.65
2018-04-07T19:10:58.700Z,43.94
2018-04-07T19:13:25.570Z,44.34
2018-04-07T19:15:52.524Z,44.10
2018-04-07T19:18:19.390Z,44.29
2018-04-07T19:20:46.346Z,43.91
2018-04-07T19:23:13.989Z,43.73
2018-04-07T19:25:40.859Z,43.89
2018-04-07T19:28:08.581Z,44.47
2018-04-07T19:30:35.545Z,44.10
2018-04-07T19:33:02.532Z,44.65
2018-04-07T19:35:29.489Z,45.02
2018-04-07T19:37:56.442Z,45.18
2018-04-07T19:40:23.307Z,45.44
2018-04-07T19:42:50.213Z,45.37
2018-04-07T19:45:17.119Z,45.44
2018-04-07T19:47:43.980Z,45.67
2018-04-07T19:50:11.004Z,45.96
2018-04-07T19:52:37.873Z,45.58
2018-04-07T19:55:04.826Z,45.81
2018-04-07T19:57:32.518Z,45.80
2018-04-07T19:59:59.424Z,46.35
2018-04-07T20:02:26.289Z,45.67
2018-04-07T20:04:53.934Z,45.45
2018-04-07T20:07:20.840Z,45.53
2018-04-07T20:09:47.752Z,46.24
2018-04-07T20:12:14.629Z,46.46
2018-04-07T20:14:41.548Z,46.90
2018-04-07T20:17:08.474Z,47.08
2018-04-07T20:19:36.213Z,47.29
2018-04-07T20:22:03.097Z,47.48
2018-04-07T20:24:29.989Z,47.51
2018-04-07T20:26:56.858Z,47.35
2018-04-07T20:29:23.756Z,47.32
2018-04-07T20:31:50.626Z,47.57
2018-04-07T20:34:17.538Z,47.64
2018-04-07T20:36:44.486Z,47.72
2018-04-07T20:39:11.427Z,47.98
2018-04-07T20:41:38.287Z,48.54
2018-04-07T20:44:05.165Z,48.56
2018-04-07T20:46:32.151Z,48.74
2018-04-07T20:48:59.759Z,49.00
2018-04-07T20:51:26.625Z,49.34
2018-04-07T20:53:53.529Z,49.95
2018-04-07T20:56:20.732Z,49.72
2018-04-07T20:58:47.593Z,50.00
2018-04-07T21:01:15.209Z,50.10
2018-04-07T21:03:42.387Z,50.69
2018-04-07T21:06:09.303Z,50.44
2018-04-07T21:08:36.186Z,50.25
2018-04-07T21:11:03.152Z,50.45
2018-04-07T21:13:30.801Z,50.67
2018-04-07T21:15:58.416Z,50.26
2018-04-07T21:18:25.326Z,50.10
2018-04-07T21:20:52.202Z,50.07
2018-04-07T21:23:19.157Z,50.43
2018-04-07T21:25:46.067Z,50.46
2018-04-07T21:28:12.936Z,50.57
2018-04-07T21:30:39.857Z,50.64
2018-04-07T21:33:06.753Z,50.62
2018-04-07T21:35:33.743Z,50.55
2018-04-07T21:38:01.479Z,50.85
2018-04-07T21:40:28.501Z,50.66
2018-04-07T21:42:55.425Z,50.74
2018-04-07T21:45:22.298Z,51.06
2018-04-07T21:47:49.211Z,50.81
2018-04-07T21:50:16.084Z,51.16
2018-04-07T21:52:43.040Z,51.29
2018-04-07T21:55:09.911Z,51.10
2018-04-07T21:57:36.820Z,51.11
2018-04-07T22:00:03.778Z,50.99
2018-04-07T22:02:30.722Z,50.88
2018-04-07T22:04:57.714Z,50.79
2018-04-07T22:07:25.391Z,50.78
2018-04-07T22:09:52.601Z,51.18
2018-04-07T22:12:19.585Z,51.21
2018-04-07T22:14:49.315Z,51.54
2018-04-07T22:17:16.223Z,51.28
2018-04-07T22:19:44.065Z,51.48
2018-04-07T22:22:10.930Z,51.64
2018-04-07T22:24:38.636Z,51.87
2018-04-07T22:27:05.554Z,51.90
2018-04-07T22:29:33.491Z,51.91
2018-04-07T22:32:00.436Z,51.94
2018-04-07T22:34:27.390Z,52.30
2018-04-07T22:36:54.342Z,52.10
2018-04-07T22:39:21.302Z,52.17
2018-04-07T22:41:48.977Z,52.59
2018-04-07T22:44:16.623Z,52.66
2018-04-07T22:46:44.281Z,52.87
2018-04-07T22:49:11.184Z,53.15
2018-04-07T22:51:38.057Z,53.45
2018-04-07T22:54:05.010Z,53.67
2018-04-07T22:56:31.978Z,53.86
2018-04-07T22:58:59.630Z,53.83
2018-04-07T23:01:26.533Z,53.98
2018-04-07T23:03:53.384Z,53.85
2018-04-07T23:06:20.570Z,54.43
2018-04-07T23:08:47.431Z,53.90
2018-04-07T23:11:15.025Z,53.94
2018-04-07T23:13:42.284Z,54.11
2018-04-07T23:16:09.179Z,54.40
2018-04-07T23:18:36.042Z,54.92
2018-04-07T23:21:03.795Z,55.13
2018-04-07T23:23:31.412Z,55.00
2018-04-07T23:25:58.342Z,54.96
2018-04-07T23:28:25.251Z,54.98
2018-04-07T23:30:52.909Z,55.30
2018-04-07T23:33:20.002Z,55.95
2018-04-07T23:35:46.912Z,55.75
2018-04-07T23:38:14.517Z,55.77
2018-04-07T23:40:41.421Z,55.64
2018-04-07T23:43:09.068Z,55.77
2018-04-07T23:45:35.973Z,56.13
2018-04-07T23:48:02.849Z,56.19
2018-04-07T23:50:29.717Z,56.28
2018-04-07T23:52:57.625Z,56.43
2018-04-07T23:55:24.540Z,56.30
2018-04-07T23:57:52.154Z,56.32
